Latest Weather Observations for Cooma Airport

IDN60901

Issued at 4:41 am EST Tuesday 28 April 2015 (issued every 10 minutes, with the page automatically refreshed every 10 minutes)

About weather observations | Map of Canberra area stations | Latest observations for Canberra area | Other Formats
Station Details ID: 070217 Name: COOMA AIRPORT AWS Lat: -36.29 Lon: 148.97 Height: 930.0 m
Data from the previous 72 hours. | See also: Recent months for locations in Aust Capital Territory
Date/Time
EST
Tmp

°C
App
Tmp
°C
Dew
Point
°C
Rel
Hum
%
Delta-T

°C
Wind Press
QNH
hPa
Press
MSL
hPa
Rain
since
9 am
mm
Dir
 
Spd
km/h
Gust
km/h
Spd
kts
Gust
kts
28/04:30am -1.2 -5.5 -1.3 99 0.0 S 11 13 6 7 1024.4 1023.4 0.0
28/04:00am -0.3 -2.3 -0.4 99 0.0 CALM 0 0 0 0 1024.1 1023.0 0.0
28/03:00am -0.1 -2.1 -0.4 98 0.1 CALM 0 0 0 0 1023.9 1022.8 0.0
28/02:30am -0.1 -2.1 -0.2 99 0.0 CALM 0 0 0 0 1023.9 1022.8 0.0
28/02:00am -0.1 -2.1 -0.2 99 0.0 CALM 0 0 0 0 1024.0 1022.9 0.0
28/01:30am -0.9 -3.1 -1.3 97 0.1 CALM 0 0 0 0 1024.1 1023.0 0.0
28/01:00am 0.2 -1.8 0.1 99 0.0 CALM 0 0 0 0 1024.1 1023.0 0.0
28/12:30am 0.5 -1.4 0.4 99 0.0 CALM 0 0 0 0 1024.0 1022.9 0.0
 
Date/Time
EST
Tmp

°C
App
Tmp
°C
Dew
Point
°C
Rel
Hum
%
Delta-T

°C
Wind Press
QNH
hPa
Press
MSL
hPa
Rain
since
9 am
mm
Dir
 
Spd
km/h
Gust
km/h
Spd
kts
Gust
kts
27/11:30pm -0.3 -2.3 -0.4 99 0.0 CALM 0 0 0 0 1023.9 1022.8 0.0
27/11:00pm -0.6 -2.8 -1.3 95 0.2 CALM 0 0 0 0 1023.8 1022.7 0.0
27/10:30pm -0.2 -2.3 -0.8 96 0.2 CALM 0 0 0 0 1023.8 1022.7 0.0
27/10:00pm 0.1 -2.0 -0.5 96 0.2 CALM 0 2 0 1 1023.7 1022.6 0.0
27/09:30pm 0.2 -1.9 -0.9 92 0.4 CALM 0 0 0 0 1023.6 1022.5 0.0
27/09:00pm 1.6 -2.0 0.4 92 0.5 WSW 9 13 5 7 1023.3 1022.3 0.0
27/08:30pm 2.5 -2.9 1.2 91 0.5 WSW 19 20 10 11 1023.0 1021.9 0.0
27/08:00pm 1.7 -2.9 1.4 98 0.1 WSW 15 17 8 9 1023.0 1021.9 0.0
27/07:30pm 1.1 -3.0 -0.4 90 0.6 SW 11 11 6 6 1022.7 1021.6 0.0
27/07:00pm 2.6 -1.4 0.3 85 0.9 SW 11 13 6 7 1022.5 1021.4 0.0
27/06:30pm 4.0 -0.3 1.2 82 1.2 WSW 13 15 7 8 1022.0 1020.9 0.0
27/05:30pm 6.0 1.8 1.9 75 1.8 SSW 13 17 7 9 1021.4 1020.2 0.0
27/05:00pm 7.9 2.7 2.2 67 2.5 S 19 24 10 13 1020.8 1019.7 0.0
27/04:30pm 8.9 2.4 2.5 64 2.9 S 26 33 14 18 1020.4 1019.2 0.0
27/04:00pm 9.7 3.6 2.8 62 3.1 SSW 24 30 13 16 1020.2 1019.0 0.0
27/03:30pm 10.6 4.2 3.4 61 3.3 SSW 26 35 14 19 1020.0 1018.9 0.0
27/03:00pm 10.5 4.4 2.8 59 3.5 SSW 24 33 13 18 1019.8 1018.7 0.0
27/02:30pm 10.8 4.1 3.8 62 3.3 SSW 28 39 15 21 1019.5 1018.3 0.0
27/02:00pm 10.7 4.0 3.5 61 3.3 S 28 37 15 20 1019.3 1018.1 0.0
27/01:30pm 10.0 3.1 2.8 61 3.3 SSW 28 37 15 20 1019.3 1018.1 0.0
27/01:00pm 9.3 2.0 2.4 62 3.1 SSW 30 41 16 22 1019.5 1018.3 0.0
27/12:30pm 9.1 1.2 2.0 61 3.1 SSW 33 43 18 23 1019.3 1018.1 0.0
27/12:00pm 9.3 0.8 2.9 64 2.9 SSW 37 48 20 26 1019.5 1018.3 0.0
27/11:30am 9.6 1.6 3.6 66 2.8 SW 35 46 19 25 1019.7 1018.6 0.0
27/11:00am 9.0 0.4 2.8 65 2.8 SSW 37 50 20 27 1019.8 1018.7 0.0
27/10:30am 7.8 -0.5 2.3 68 2.4 SSW 35 50 19 27 1019.9 1018.8 0.0
27/10:14am 7.3 0.4 2.4 71 2.2 SSW 28 48 15 26 1019.9 1018.8 0.0
27/10:00am 6.6 -1.0 3.8 82 1.3 SSW 33 46 18 25 1019.9 1018.8 0.0
27/09:30am 6.6 0.5 4.8 88 0.8 SSW 26 33 14 18 1019.9 1018.8 0.0
27/09:00am 5.8 0.7 4.3 90 0.7 SSW 20 28 11 15 1019.9 1018.8 0.2
27/08:30am 5.5 1.7 3.7 88 0.8 SW 13 17 7 9 1019.7 1018.6 0.2
27/08:00am 3.7 2.3 3.6 99 0.0 CALM 0 0 0 0 1019.5 1018.3 0.2
27/07:30am 1.9 0.2 1.8 99 0.0 CALM 0 0 0 0 1019.1 1017.9 0.2
27/07:00am 0.8 -1.1 0.7 99 0.0 CALM 0 0 0 0 1018.7 1017.6 0.2
27/06:30am -0.4 -2.5 -0.5 99 0.0 CALM 0 0 0 0 1018.5 1017.3 0.2
27/05:30am -0.1 -2.2 -0.5 97 0.1 CALM 0 6 0 3 1017.9 1016.7 0.2
27/05:00am -0.1 -3.9 -0.4 98 0.1 SW 9 11 5 6 1017.8 1016.6 0.2
27/04:30am 0.0 -2.0 -0.1 99 0.0 CALM 0 0 0 0 1017.6 1016.4 0.2
27/04:00am -0.2 -2.3 -0.6 97 0.1 CALM 0 0 0 0 1017.4 1016.2 0.2
27/03:30am -0.2 -2.4 -1.6 90 0.5 CALM 0 0 0 0 1017.4 1016.2 0.2
27/03:00am 1.6 -0.3 0.3 91 0.5 CALM 0 0 0 0 1017.3 1016.1 0.2
27/02:30am 1.6 -2.0 0.4 92 0.5 SW 9 9 5 5 1017.4 1016.2 0.2
27/02:00am 2.0 -1.6 0.7 91 0.5 W 9 11 5 6 1017.4 1016.2 0.2
27/01:30am 1.8 -1.8 0.8 93 0.4 W 9 13 5 7 1017.4 1016.2 0.2
27/01:00am 1.6 -1.7 0.4 92 0.5 SW 7 9 4 5 1017.4 1016.2 0.2
27/12:30am 2.1 -1.8 1.2 94 0.4 WSW 11 15 6 8 1017.5 1016.3 0.2
27/12:00am 3.2 -1.3 2.2 93 0.4 WSW 15 17 8 9 1017.6 1016.4 0.2
 
Date/Time
EST
Tmp

°C
App
Tmp
°C
Dew
Point
°C
Rel
Hum
%
Delta-T

°C
Wind Press
QNH
hPa
Press
MSL
hPa
Rain
since
9 am
mm
Dir
 
Spd
km/h
Gust
km/h
Spd
kts
Gust
kts
26/11:30pm 3.6 -0.3 3.2 97 0.2 SW 13 15 7 8 1017.8 1016.6 0.2
26/11:00pm 3.3 -0.6 3.2 99 0.0 SSW 13 20 7 11 1017.9 1016.7 0.2
26/10:30pm 2.1 -1.8 1.4 95 0.3 SW 11 15 6 8 1017.9 1016.7 0.2
26/10:00pm 2.5 -2.0 2.4 99 0.0 SW 15 17 8 9 1017.8 1016.6 0.2
26/09:30pm 3.1 -1.2 3.0 99 0.0 WSW 15 17 8 9 1018.0 1016.8 0.2
26/09:00pm 2.9 -1.5 2.6 98 0.1 SW 15 17 8 9 1017.8 1016.6 0.2
26/08:30pm 3.1 -1.7 2.5 96 0.3 WSW 17 20 9 11 1017.5 1016.3 0.2
26/08:00pm 4.0 -1.1 3.1 94 0.4 SSW 19 28 10 15 1017.2 1016.0 0.2
26/07:30pm 4.5 0.0 4.1 97 0.2 S 17 19 9 10 1017.1 1015.9 0.2
26/07:00pm 3.7 -0.8 2.4 91 0.6 SSW 15 19 8 10 1017.0 1015.8 0.2
26/06:30pm 4.5 -0.7 2.7 88 0.8 SSW 19 20 10 11 1016.5 1015.3 0.2
26/06:00pm 5.6 -0.4 3.1 84 1.1 SSW 24 28 13 15 1016.1 1014.9 0.2
26/05:30pm 6.5 1.0 4.2 85 1.0 SSW 22 32 12 17 1015.7 1014.4 0.2
26/05:28pm 6.5 1.1 4.3 86 1.0 SSW 22 28 12 15 1015.7 1014.4 0.2
26/05:00pm 7.4 1.7 5.0 85 1.1 SSW 24 33 13 18 1015.2 1014.0 0.2
26/04:30pm 7.7 1.8 6.0 89 0.8 SSW 26 35 14 19 1014.9 1013.7 0.2
26/04:00pm 8.1 2.0 6.4 89 0.8 SSW 28 35 15 19 1014.6 1013.3 0.2
26/03:30pm 8.4 1.5 6.5 88 0.9 S 32 39 17 21 1014.1 1012.9 0.2
26/03:21pm 9.0 2.5 6.4 84 1.3 S 30 37 16 20 1013.8 1012.5 0.2
26/03:00pm 10.4 3.6 6.9 79 1.7 S 32 39 17 21 1013.5 1012.2 0.2
26/02:30pm 10.8 5.1 6.6 75 2.1 SSW 26 35 14 19 1013.0 1011.8 0.2
26/02:00pm 10.9 4.5 7.0 77 2.0 SSW 30 39 16 21 1013.0 1011.8 0.2
26/01:30pm 9.9 3.6 7.2 83 1.4 SSW 30 39 16 21 1013.2 1011.9 0.2
26/01:09pm 9.6 3.1 6.5 81 1.5 SSW 30 39 16 21 1012.9 1011.6 0.2
26/01:00pm 9.9 4.0 7.7 86 1.1 SSW 28 37 15 20 1012.8 1011.5 0.2
26/12:30pm 10.0 4.5 9.2 95 0.4 SSW 28 37 15 20 1012.9 1011.6 0.2
26/12:00pm 8.8 2.0 7.9 94 0.5 SW 33 43 18 23 1012.8 1011.5 0.2
26/11:30am 9.3 3.3 8.5 95 0.4 SW 30 39 16 21 1012.7 1011.4 0.2
26/11:00am 9.6 3.2 8.4 92 0.6 SW 32 41 17 22 1012.7 1011.4 0.2
26/10:30am 9.8 4.1 9.7 99 0.1 SW 30 39 16 21 1012.6 1011.3 0.2
26/10:06am 8.8 3.1 8.5 98 0.2 SSW 28 48 15 26 1012.4 1011.1 0.2
26/10:00am 9.0 3.1 8.9 99 0.1 SSW 30 41 16 22 1012.5 1011.2 0.2
26/09:45am 8.8 2.4 8.7 99 0.1 SW 32 43 17 23 1012.3 1011.0 0.2
26/09:30am 8.8 2.2 8.7 99 0.1 SW 33 43 18 23 1012.1 1010.8 0.2
26/09:00am 8.8 3.2 8.7 99 0.1 SW 28 41 15 22 1012.0 1010.6 9.2
26/08:58am 8.7 3.1 8.6 99 0.1 SW 28 41 15 22 1012.0 1010.6 9.2
26/08:30am 8.4 3.8 8.3 99 0.1 SW 22 32 12 17 1011.7 1010.4 9.2
26/08:00am 7.9 3.2 7.8 99 0.1 SW 22 28 12 15 1011.6 1010.3 9.2
26/07:30am 7.6 3.2 7.5 99 0.0 SW 20 26 11 14 1011.4 1010.1 9.0
26/07:00am 7.6 2.1 7.5 99 0.0 SW 26 32 14 17 1010.9 1009.5 8.0
26/06:30am 7.5 2.7 7.4 99 0.0 SW 22 32 12 17 1010.3 1009.0 7.8
26/06:00am 7.4 2.6 7.3 99 0.0 SW 22 30 12 16 1009.9 1008.5 7.8
26/05:30am 6.8 2.8 6.7 99 0.0 SW 17 20 9 11 1009.9 1008.5 7.8
26/05:00am 6.8 2.8 6.7 99 0.0 SSW 17 20 9 11 1009.8 1008.4 7.8
26/04:44am 6.5 2.1 6.4 99 0.0 SSW 19 22 10 12 1009.7 1008.3 7.8
26/04:30am 6.5 2.1 6.4 99 0.0 SW 19 22 10 12 1009.5 1008.2 7.8
26/04:00am 6.6 1.6 6.5 99 0.0 SW 22 28 12 15 1009.3 1008.0 7.8
26/03:43am 6.5 2.1 6.4 99 0.0 SW 19 24 10 13 1009.2 1007.9 7.8
26/03:30am 6.7 2.1 6.6 99 0.0 SW 20 28 11 15 1009.4 1008.1 7.8
26/03:00am 6.7 1.7 6.6 99 0.0 SW 22 26 12 14 1009.3 1008.0 7.8
26/02:30am 6.8 1.1 6.7 99 0.0 SSW 26 35 14 19 1009.2 1007.9 7.8
26/02:00am 6.9 2.0 6.8 99 0.0 SSW 22 28 12 15 1009.2 1007.9 7.8
26/01:30am 6.9 3.7 6.8 99 0.0 SW 13 17 7 9 1009.4 1008.1 7.8
26/01:00am 6.8 3.6 6.7 99 0.0 SW 13 15 7 8 1009.8 1008.4 7.8
26/12:30am 6.6 3.3 6.5 99 0.0 SW 13 17 7 9 1009.9 1008.5 7.8
26/12:01am 5.6 2.1 5.5 99 0.0 SW 13 15 7 8 1009.8 1008.4 7.8
26/12:00am 5.6 2.1 5.5 99 0.0 SW 13 15 7 8 1009.8 1008.4 7.8
 
Date/Time
EST
Tmp

°C
App
Tmp
°C
Dew
Point
°C
Rel
Hum
%
Delta-T

°C
Wind Press
QNH
hPa
Press
MSL
hPa
Rain
since
9 am
mm
Dir
 
Spd
km/h
Gust
km/h
Spd
kts
Gust
kts
25/11:30pm 5.1 2.3 5.0 99 0.0 S 9 13 5 7 1009.8 1008.4 7.8
25/11:00pm 5.1 2.3 5.0 99 0.0 S 9 11 5 6 1010.2 1008.9 7.8
25/10:30pm 6.2 2.5 6.1 99 0.0 SW 15 19 8 10 1010.1 1008.7 7.8
25/10:00pm 6.6 2.6 6.5 99 0.0 WSW 17 20 9 11 1010.3 1009.0 7.8
25/09:30pm 6.3 1.8 6.2 99 0.0 SW 19 20 10 11 1010.2 1008.9 7.8
25/09:00pm 5.4 1.9 5.3 99 0.0 WSW 13 15 7 8 1010.1 1008.7 7.8
25/08:30pm 5.4 2.6 5.3 99 0.0 S 9 11 5 6 1010.2 1008.9 7.8
25/08:00pm 5.0 3.9 4.9 99 0.0 CALM 0 0 0 0 1009.9 1008.5 7.8
25/07:30pm 5.4 3.0 5.3 99 0.0 NW 7 9 4 5 1009.4 1008.1 7.8
25/07:00pm 5.4 3.0 5.3 99 0.0 NW 7 9 4 5 1009.2 1007.9 7.8
25/06:30pm 5.1 4.0 5.0 99 0.0 CALM 0 0 0 0 1009.0 1007.6 7.8
25/06:00pm 5.7 3.6 5.6 99 0.0 NE 6 7 3 4 1008.6 1007.2 7.8
25/05:30pm 6.2 4.0 6.1 99 0.0 NE 7 9 4 5 1008.0 1006.6 7.8
25/05:00pm 7.1 4.6 6.7 97 0.2 NE 9 13 5 7 1008.6 1007.2 7.8
25/04:30pm 7.6 5.1 6.4 92 0.6 NNW 9 17 5 9 1008.4 1007.1 7.8
25/04:00pm 8.1 4.8 6.6 90 0.7 NNE 13 20 7 11 1008.0 1006.6 7.8
25/03:30pm 7.8 4.9 6.4 91 0.7 ENE 11 15 6 8 1008.0 1006.6 7.8
25/03:00pm 8.0 5.0 6.0 87 1.0 N 11 15 6 8 1008.7 1007.3 7.4
25/02:32pm 8.1 4.8 6.2 88 0.9 W 13 17 7 9 1008.9 1007.5 6.8
25/02:30pm 8.2 4.9 6.3 88 0.9 W 13 17 7 9 1008.9 1007.5 6.8
25/02:14pm 7.9 5.5 7.0 94 0.4 NW 9 15 5 8 1009.3 1008.0 6.2
25/02:00pm 7.9 5.5 7.0 94 0.4 N 9 13 5 7 1009.3 1008.0 5.6
25/01:43pm 8.0 4.8 6.9 93 0.5 W 13 19 7 10 1008.8 1007.4 5.4
25/01:30pm 7.7 3.2 6.2 90 0.7 SW 19 28 10 15 1008.2 1006.8 5.2
25/01:15pm 7.8 3.0 4.9 82 1.4 NW 19 30 10 16 1008.9 1007.5 1.4
25/01:00pm 8.8 5.2 6.9 88 0.9 SSW 15 19 8 10 1008.2 1006.8 0.0
25/12:40pm 9.1 3.6 5.7 79 1.6 WSW 24 33 13 18 1008.2 1006.8 0.0
25/12:30pm 10.7 5.5 5.3 69 2.6 W 22 33 12 18 1008.4 1007.1 0.0
25/12:14pm 13.1 11.3 5.3 59 3.8 WSW 4 9 2 5 1008.3 1007.0 0.0
25/12:00pm 14.5 11.7 3.3 47 5.4 NE 7 15 4 8 1008.2 1006.8 0.0
25/11:30am 15.0 12.4 6.0 55 4.5 ENE 9 15 5 8 1008.6 1007.2 0.0
25/11:00am 12.4 10.0 5.3 62 3.5 NE 7 11 4 6 1008.9 1007.5 0.0
25/10:30am 11.8 8.2 5.0 63 3.3 NW 13 20 7 11 1009.1 1007.7 0.0
25/10:00am 10.0 5.4 5.4 73 2.2 NNW 19 26 10 14 1009.7 1008.3 0.0
25/09:30am 10.6 5.9 6.0 73 2.3 NNW 20 28 11 15 1009.8 1008.4 0.0
25/09:00am 9.5 7.0 6.6 82 1.4 NE 9 11 5 6 1009.7 1008.3 0.0
25/08:30am 8.5 5.2 6.3 86 1.1 NE 13 15 7 8 1009.4 1008.1 0.0
25/08:00am 7.6 4.2 5.7 88 0.9 NNE 13 15 7 8 1009.2 1007.9 0.0
25/07:30am 6.6 2.7 5.4 92 0.6 NE 15 17 8 9 1008.8 1007.4 0.0
25/07:00am 4.6 1.6 3.9 95 0.3 NE 9 11 5 6 1008.6 1007.2 0.0
25/06:30am 4.8 2.0 3.1 89 0.7 NE 7 11 4 6 1008.3 1007.0 0.0
25/06:00am 6.0 2.9 3.8 86 1.0 NE 9 11 5 6 1008.1 1006.7 0.0
25/05:30am 7.0 3.9 3.8 80 1.4 WNW 9 15 5 8 1007.9 1006.5 0.0
25/05:00am 8.2 4.4 4.0 75 1.9 NW 13 19 7 10 1008.0 1006.6 0.0

Latest Capital City Observations: Canberra | Sydney | Melbourne | Brisbane | Adelaide | Perth | Hobart | Darwin

Other Formats:

Comma delimited format used in spreadsheet applications
http://www.bom.gov.au/fwo/IDN60903/IDN60903.94921.axf

JavaScript Object Notation format (JSON) in row-major order
http://www.bom.gov.au/fwo/IDN60903/IDN60903.94921.json